createdAt,value
2023-01-17T00:00:52.202Z,1.60
2023-01-17T00:03:20.181Z,1.83
2023-01-17T00:06:06.894Z,1.52
2023-01-17T00:08:52.977Z,1.88
2023-01-17T00:11:22.280Z,1.77
2023-01-17T00:13:51.596Z,1.83
2023-01-17T00:16:20.184Z,1.90
2023-01-17T00:19:02.672Z,2.00
2023-01-17T00:21:49.488Z,1.52
2023-01-17T00:24:37.259Z,1.65
2023-01-17T00:27:12.457Z,2.00
2023-01-17T00:29:40.056Z,1.60
2023-01-17T00:32:08.250Z,1.90
2023-01-17T00:34:35.714Z,1.92
2023-01-17T00:37:05.959Z,1.70
2023-01-17T00:39:32.861Z,1.92
2023-01-17T00:41:59.955Z,2.53
2023-01-17T00:44:45.920Z,1.90
2023-01-17T00:47:31.236Z,2.10
2023-01-17T00:50:19.574Z,2.15
2023-01-17T00:53:08.193Z,1.80
2023-01-17T00:55:54.112Z,2.00
2023-01-17T00:58:41.636Z,2.05
2023-01-17T01:01:27.258Z,2.25
2023-01-17T01:04:13.226Z,2.65
2023-01-17T01:07:00.705Z,2.17
2023-01-17T01:09:47.451Z,1.70
2023-01-17T01:12:35.683Z,2.00
2023-01-17T01:18:36.282Z,1.80
2023-01-17T01:21:24.667Z,1.52
2023-01-17T01:24:11.028Z,2.10
2023-01-17T01:26:58.880Z,1.50
2023-01-17T01:29:49.485Z,1.50
2023-01-17T01:32:35.877Z,1.55
2023-01-17T01:35:03.910Z,1.80
2023-01-17T01:37:36.788Z,1.60
2023-01-17T01:40:06.730Z,1.92
2023-01-17T01:42:43.016Z,1.80
2023-01-17T01:45:22.351Z,1.75
2023-01-17T01:47:52.773Z,1.63
2023-01-17T01:50:29.204Z,1.50
2023-01-17T01:53:01.822Z,2.20
2023-01-17T01:55:37.998Z,2.03
2023-01-17T01:58:34.064Z,2.00
2023-01-17T02:01:05.167Z,1.92
2023-01-17T02:03:36.542Z,1.92
2023-01-17T02:06:20.227Z,1.95
2023-01-17T02:08:53.399Z,2.13
2023-01-17T02:11:24.420Z,1.52
2023-01-17T02:13:56.938Z,1.95
2023-01-17T02:16:40.299Z,1.92
2023-01-17T02:19:37.239Z,1.67
2023-01-17T02:22:35.123Z,2.20
2023-01-17T02:25:36.695Z,2.10
2023-01-17T02:28:22.525Z,2.10
2023-01-17T02:30:58.816Z,2.25
2023-01-17T02:33:36.390Z,2.60
2023-01-17T02:36:10.170Z,2.28
2023-01-17T02:38:59.317Z,2.22
2023-01-17T02:41:36.180Z,2.55
2023-01-17T02:44:07.934Z,2.47
2023-01-17T02:46:47.702Z,2.20
2023-01-17T02:49:16.352Z,2.20
2023-01-17T02:52:21.946Z,2.83
2023-01-17T02:55:01.846Z,2.22
2023-01-17T02:57:47.696Z,2.47
2023-01-17T03:00:25.345Z,2.10
2023-01-17T03:03:03.977Z,2.33
2023-01-17T03:05:39.864Z,2.35
2023-01-17T03:08:08.948Z,1.85
2023-01-17T03:10:45.053Z,1.85
2023-01-17T03:13:14.035Z,2.15
2023-01-17T03:15:46.956Z,1.90
2023-01-17T03:20:46.427Z,2.00
2023-01-17T03:23:18.880Z,2.72
2023-01-17T03:25:47.174Z,2.53
2023-01-17T03:28:17.132Z,2.30
2023-01-17T03:30:47.081Z,2.63
2023-01-17T03:33:18.607Z,2.38
2023-01-17T03:35:46.971Z,2.47
2023-01-17T03:38:16.406Z,2.20
2023-01-17T03:40:44.627Z,2.22
2023-01-17T03:43:19.795Z,1.80
2023-01-17T03:45:51.932Z,1.90
2023-01-17T03:48:26.067Z,2.15
2023-01-17T03:50:54.553Z,2.88
2023-01-17T03:53:23.476Z,2.45
2023-01-17T03:55:54.441Z,2.15
2023-01-17T03:58:22.352Z,2.65
2023-01-17T04:00:50.811Z,2.40
2023-01-17T04:03:19.305Z,2.78
2023-01-17T04:05:51.158Z,2.70
2023-01-17T04:08:20.592Z,2.83
2023-01-17T04:10:49.731Z,2.85
2023-01-17T04:13:18.429Z,2.78
2023-01-17T04:15:50.091Z,2.75
2023-01-17T04:18:21.250Z,2.75
2023-01-17T04:20:51.961Z,2.72
2023-01-17T04:23:21.422Z,2.83
2023-01-17T04:25:51.270Z,2.88
2023-01-17T04:28:23.758Z,3.33
2023-01-17T04:30:57.706Z,3.10
2023-01-17T04:33:33.264Z,3.25
2023-01-17T04:36:03.277Z,2.90
2023-01-17T04:38:31.839Z,2.70
2023-01-17T04:41:00.005Z,2.83
2023-01-17T04:43:28.250Z,2.65
2023-01-17T04:45:58.127Z,3.08
2023-01-17T04:48:27.231Z,3.50
2023-01-17T04:51:02.413Z,3.50
2023-01-17T04:53:31.430Z,4.55
2023-01-17T04:55:59.989Z,3.80
2023-01-17T04:58:28.615Z,4.07
2023-01-17T05:00:57.622Z,4.20
2023-01-17T05:03:26.363Z,2.97
2023-01-17T05:06:02.290Z,3.30
2023-01-17T05:08:33.850Z,3.20
2023-01-17T05:11:03.173Z,3.10
2023-01-17T05:13:33.387Z,3.58
2023-01-17T05:16:01.789Z,2.58
2023-01-17T05:18:33.591Z,2.90
2023-01-17T05:21:09.668Z,3.20
2023-01-17T05:23:40.558Z,3.00
2023-01-17T05:26:08.619Z,2.92
2023-01-17T05:28:41.164Z,3.20
2023-01-17T05:31:09.764Z,2.88
2023-01-17T05:33:37.760Z,3.50
2023-01-17T05:36:06.077Z,2.85
2023-01-17T05:38:37.264Z,2.70
2023-01-17T05:41:09.740Z,2.70
2023-01-17T05:43:38.140Z,2.90
2023-01-17T05:46:07.701Z,3.75
2023-01-17T05:48:36.178Z,3.95
2023-01-17T05:51:05.878Z,4.35
2023-01-17T05:53:36.925Z,10.48
2023-01-17T05:56:07.781Z,8.82
2023-01-17T05:58:37.494Z,7.90
2023-01-17T06:01:08.177Z,6.35
2023-01-17T06:03:41.511Z,5.70
2023-01-17T06:06:17.095Z,4.68
2023-01-17T06:08:52.293Z,4.95
2023-01-17T06:11:23.926Z,5.70
2023-01-17T06:13:51.992Z,7.40
2023-01-17T06:16:21.614Z,6.72
2023-01-17T06:18:54.051Z,8.93
2023-01-17T06:21:22.475Z,8.60
2023-01-17T06:23:50.566Z,9.82
2023-01-17T06:26:23.751Z,9.23
2023-01-17T06:28:53.902Z,7.38
2023-01-17T06:31:23.039Z,7.05
2023-01-17T06:33:52.896Z,7.38
2023-01-17T06:36:22.288Z,6.95
2023-01-17T06:38:54.810Z,7.20
2023-01-17T06:41:24.022Z,8.52
2023-01-17T06:43:57.427Z,7.30
2023-01-17T06:46:28.667Z,6.68
2023-01-17T06:49:01.524Z,6.25
2023-01-17T06:51:31.065Z,6.88
2023-01-17T06:53:59.382Z,6.25
2023-01-17T06:56:29.548Z,5.47
2023-01-17T06:59:01.423Z,4.38
2023-01-17T07:01:32.132Z,5.25
2023-01-17T07:04:10.913Z,4.65
2023-01-17T07:06:53.126Z,5.65
2023-01-17T07:09:21.477Z,5.10
2023-01-17T07:11:51.820Z,5.28
2023-01-17T07:14:24.294Z,4.28
2023-01-17T07:16:54.735Z,3.38
2023-01-17T07:19:26.965Z,4.15
2023-01-17T07:22:06.463Z,4.20
2023-01-17T07:24:36.438Z,3.25
2023-01-17T07:27:08.214Z,3.65
2023-01-17T07:29:38.459Z,3.20
2023-01-17T07:32:08.766Z,3.22
2023-01-17T07:34:40.381Z,2.33
2023-01-17T07:37:09.045Z,2.90
2023-01-17T07:39:40.534Z,3.53
2023-01-17T07:42:09.138Z,3.20
2023-01-17T07:44:46.731Z,4.40
2023-01-17T07:47:15.001Z,3.13
2023-01-17T07:49:51.563Z,3.85
2023-01-17T07:52:19.525Z,4.07
2023-01-17T07:54:51.001Z,3.85
2023-01-17T07:57:19.675Z,3.40
2023-01-17T07:59:51.150Z,3.10
2023-01-17T08:02:24.590Z,3.10
2023-01-17T08:04:52.804Z,2.92
2023-01-17T08:07:22.563Z,2.88
2023-01-17T08:09:54.488Z,3.38
2023-01-17T08:12:26.085Z,2.97
2023-01-17T08:14:56.919Z,3.25
2023-01-17T08:17:28.295Z,3.38
2023-01-17T08:20:02.378Z,3.90
2023-01-17T08:22:31.891Z,6.00
2023-01-17T08:24:59.787Z,5.68
2023-01-17T08:27:30.837Z,5.32
2023-01-17T08:30:00.292Z,4.82
2023-01-17T08:32:28.540Z,4.78
2023-01-17T08:34:57.514Z,4.90
2023-01-17T08:37:26.837Z,5.22
2023-01-17T08:39:54.983Z,5.45
2023-01-17T08:42:23.503Z,4.90
2023-01-17T08:44:52.471Z,6.13
2023-01-17T08:47:21.794Z,5.10
2023-01-17T08:49:53.178Z,4.60
2023-01-17T08:52:21.472Z,3.55
2023-01-17T08:54:52.033Z,4.03
2023-01-17T08:57:20.854Z,3.47
2023-01-17T08:59:52.697Z,3.85
2023-01-17T09:02:24.053Z,3.15
2023-01-17T09:04:53.732Z,3.55
2023-01-17T09:07:22.374Z,3.63
2023-01-17T09:09:53.672Z,3.20
2023-01-17T09:12:26.359Z,3.13
2023-01-17T09:14:54.399Z,3.40
2023-01-17T09:17:24.166Z,3.10
2023-01-17T09:19:52.877Z,3.33
2023-01-17T09:22:21.408Z,3.05
2023-01-17T09:24:50.566Z,2.80
2023-01-17T09:27:24.296Z,3.33
2023-01-17T09:29:52.299Z,2.83
2023-01-17T09:32:20.240Z,2.90
2023-01-17T09:34:54.832Z,3.40
2023-01-17T09:37:23.172Z,3.95
2023-01-17T09:39:51.716Z,3.70
2023-01-17T09:42:25.517Z,3.70
2023-01-17T09:44:54.508Z,5.03
2023-01-17T09:47:33.307Z,3.90
2023-01-17T09:50:39.053Z,4.43
2023-01-17T09:53:16.549Z,4.65
2023-01-17T09:55:51.402Z,4.75
2023-01-17T09:58:22.317Z,5.47
2023-01-17T10:01:00.178Z,4.57
2023-01-17T10:03:58.654Z,4.88
2023-01-17T10:06:47.302Z,5.20
2023-01-17T10:09:34.978Z,5.32
2023-01-17T10:12:24.198Z,6.07
2023-01-17T10:15:13.534Z,6.68
2023-01-17T10:17:52.566Z,5.47
2023-01-17T10:20:39.313Z,5.97
2023-01-17T10:23:31.088Z,4.90
2023-01-17T10:26:06.811Z,3.85
2023-01-17T10:28:42.565Z,4.10
2023-01-17T10:31:17.026Z,3.88
2023-01-17T10:33:53.614Z,4.72
2023-01-17T10:36:24.496Z,4.85
2023-01-17T10:38:58.629Z,5.10
2023-01-17T10:41:32.295Z,4.88
2023-01-17T10:44:11.023Z,5.38
2023-01-17T10:46:43.986Z,5.93
2023-01-17T10:49:20.830Z,4.70
2023-01-17T10:52:12.720Z,4.93
2023-01-17T10:55:18.369Z,3.97
2023-01-17T10:57:49.108Z,3.40
2023-01-17T11:00:44.195Z,2.83
2023-01-17T11:03:14.334Z,2.97
2023-01-17T11:05:46.522Z,2.72
2023-01-17T11:08:20.944Z,3.10
2023-01-17T11:10:55.083Z,2.50
2023-01-17T11:13:33.452Z,2.70
2023-01-17T11:16:06.163Z,2.33
2023-01-17T11:18:40.158Z,2.90
2023-01-17T11:21:13.634Z,2.70
2023-01-17T11:23:43.842Z,1.92
2023-01-17T11:26:24.862Z,2.20
2023-01-17T11:28:55.084Z,2.13
2023-01-17T11:31:40.557Z,1.73
2023-01-17T11:34:17.933Z,1.98
2023-01-17T11:36:47.103Z,1.85
2023-01-17T11:39:29.757Z,1.90
2023-01-17T11:41:59.240Z,2.00
2023-01-17T11:44:33.251Z,2.05
2023-01-17T11:47:19.445Z,1.60
2023-01-17T11:49:49.120Z,1.90
2023-01-17T11:52:24.556Z,1.95
2023-01-17T11:54:55.372Z,1.80
2023-01-17T11:57:31.840Z,2.40
2023-01-17T12:00:16.682Z,2.30
2023-01-17T12:03:03.534Z,2.80
2023-01-17T12:05:53.531Z,2.20
2023-01-17T12:08:34.954Z,2.20
2023-01-17T12:11:09.053Z,2.35
2023-01-17T12:14:01.829Z,2.28
2023-01-17T12:16:45.641Z,1.95
2023-01-17T12:19:38.149Z,1.65
2023-01-17T12:22:24.374Z,1.85
2023-01-17T12:25:10.083Z,2.08
2023-01-17T12:27:47.277Z,2.50
2023-01-17T12:30:34.136Z,1.90
2023-01-17T12:33:15.844Z,2.30
2023-01-17T12:35:51.546Z,2.08
2023-01-17T12:38:33.318Z,2.15
2023-01-17T12:41:07.880Z,1.77
2023-01-17T12:43:42.060Z,2.13
2023-01-17T12:46:21.060Z,2.17
2023-01-17T12:48:53.486Z,1.85
2023-01-17T12:51:27.845Z,1.77
2023-01-17T12:54:04.511Z,1.88
2023-01-17T12:56:38.450Z,1.45
2023-01-17T12:59:16.673Z,1.92
2023-01-17T13:01:57.677Z,1.92
2023-01-17T13:04:32.435Z,1.92
2023-01-17T13:07:10.561Z,1.90
2023-01-17T13:09:43.168Z,2.30
2023-01-17T13:12:15.048Z,1.80
2023-01-17T13:14:43.571Z,1.98
2023-01-17T13:17:29.032Z,2.10
2023-01-17T13:20:01.098Z,1.83
2023-01-17T13:22:32.816Z,1.65
2023-01-17T13:25:23.688Z,2.38
2023-01-17T13:28:11.867Z,1.95
2023-01-17T13:31:12.610Z,1.90
2023-01-17T13:33:59.828Z,2.35
2023-01-17T13:36:42.828Z,2.40
2023-01-17T13:39:32.670Z,2.00
2023-01-17T13:42:10.427Z,2.00
2023-01-17T13:44:39.138Z,2.08
2023-01-17T13:47:28.588Z,1.50
2023-01-17T13:49:59.004Z,1.40
2023-01-17T13:52:36.083Z,2.42
2023-01-17T13:55:08.802Z,2.00
2023-01-17T13:57:46.660Z,1.70
2023-01-17T14:00:59.727Z,2.03
2023-01-17T14:04:03.465Z,1.33
2023-01-17T14:06:41.822Z,1.60
2023-01-17T14:09:27.504Z,1.73
2023-01-17T14:12:02.707Z,1.70
2023-01-17T14:14:55.507Z,1.60
2023-01-17T14:17:53.868Z,1.48
2023-01-17T14:21:06.449Z,1.85
2023-01-17T14:24:05.082Z,1.95
2023-01-17T14:26:46.194Z,1.95
2023-01-17T14:29:52.343Z,2.00
2023-01-17T14:32:23.393Z,1.70
2023-01-17T14:34:53.610Z,2.90
2023-01-17T14:37:37.886Z,2.53
2023-01-17T14:40:17.148Z,3.42
2023-01-17T14:42:56.836Z,2.63
2023-01-17T14:45:28.912Z,1.83
2023-01-17T14:47:58.594Z,1.40
2023-01-17T14:50:29.945Z,1.63
2023-01-17T14:53:18.267Z,1.90
2023-01-17T14:55:57.547Z,1.90
2023-01-17T14:58:30.747Z,2.50
2023-01-17T15:01:03.509Z,2.40
2023-01-17T15:03:34.667Z,2.53
2023-01-17T15:06:12.834Z,2.13
2023-01-17T15:08:41.185Z,2.25
2023-01-17T15:11:16.179Z,2.38
2023-01-17T15:13:50.739Z,2.20
2023-01-17T15:16:23.148Z,3.55
2023-01-17T15:18:54.946Z,2.78
2023-01-17T15:21:25.760Z,2.92
2023-01-17T15:23:57.284Z,3.65
2023-01-17T15:26:28.092Z,2.95
2023-01-17T15:29:05.914Z,2.78
2023-01-17T15:31:44.057Z,2.90
2023-01-17T15:34:23.387Z,2.90
2023-01-17T15:36:52.194Z,3.03
2023-01-17T15:39:23.051Z,3.85
2023-01-17T15:41:55.390Z,5.78
2023-01-17T15:44:47.371Z,5.07
2023-01-17T15:47:32.732Z,2.80
2023-01-17T15:50:02.988Z,2.40
2023-01-17T15:52:32.109Z,2.85
2023-01-17T15:55:12.520Z,2.72
2023-01-17T15:57:41.781Z,2.88
2023-01-17T16:00:21.876Z,3.08
2023-01-17T16:02:57.260Z,3.67
2023-01-17T16:05:43.559Z,3.58
2023-01-17T16:08:52.898Z,4.03
2023-01-17T16:11:22.323Z,3.90
2023-01-17T16:13:51.585Z,3.45
2023-01-17T16:16:26.660Z,3.42
2023-01-17T16:19:03.036Z,4.35
2023-01-17T16:21:34.336Z,8.07
2023-01-17T16:24:04.522Z,6.10
2023-01-17T16:26:32.599Z,5.95
2023-01-17T16:29:01.027Z,4.90
2023-01-17T16:31:30.660Z,5.18
2023-01-17T16:33:59.341Z,5.30
2023-01-17T16:36:28.627Z,7.13
2023-01-17T16:38:58.139Z,7.05
2023-01-17T16:41:28.440Z,6.95
2023-01-17T16:44:02.132Z,6.28
2023-01-17T16:46:32.304Z,4.78
2023-01-17T16:49:03.699Z,4.78
2023-01-17T16:51:32.079Z,7.10
2023-01-17T16:54:00.500Z,8.13
2023-01-17T16:56:29.877Z,7.88
2023-01-17T16:58:58.789Z,9.27
2023-01-17T17:01:28.208Z,8.15
2023-01-17T17:03:59.879Z,7.72
2023-01-17T17:06:28.183Z,6.55
2023-01-17T17:08:56.395Z,6.25
2023-01-17T17:11:24.885Z,7.40
2023-01-17T17:13:54.200Z,7.57
2023-01-17T17:16:28.887Z,8.02
2023-01-17T17:19:02.426Z,7.80
2023-01-17T17:21:31.914Z,5.65
2023-01-17T17:24:01.731Z,4.80
2023-01-17T17:26:34.620Z,4.18
2023-01-17T17:29:04.110Z,3.85
2023-01-17T17:31:35.166Z,3.13
2023-01-17T17:34:07.345Z,4.55
2023-01-17T17:36:38.660Z,4.57
2023-01-17T17:39:09.360Z,6.80
2023-01-17T17:41:39.316Z,7.60
2023-01-17T17:44:08.402Z,7.75
2023-01-17T17:46:42.432Z,32.72
2023-01-17T17:49:16.876Z,27.30
2023-01-17T17:51:46.239Z,16.45
2023-01-17T17:54:18.941Z,10.95
2023-01-17T17:56:51.608Z,9.43
2023-01-17T17:59:24.275Z,11.18
2023-01-17T18:01:52.751Z,20.92
2023-01-17T18:04:23.015Z,22.20
2023-01-17T18:06:51.621Z,12.98
2023-01-17T18:09:20.033Z,11.85
2023-01-17T18:11:48.738Z,8.77
2023-01-17T18:14:23.450Z,9.70
2023-01-17T18:16:51.833Z,6.75
2023-01-17T18:19:25.894Z,5.28
2023-01-17T18:21:54.759Z,4.45
2023-01-17T18:24:25.636Z,4.45
2023-01-17T18:26:57.199Z,4.35
2023-01-17T18:29:28.035Z,6.60
2023-01-17T18:31:56.586Z,8.88
2023-01-17T18:34:31.574Z,12.32
2023-01-17T18:37:01.120Z,12.18
2023-01-17T18:39:31.267Z,12.85
2023-01-17T18:41:59.476Z,12.68
2023-01-17T18:44:30.122Z,11.18
2023-01-17T18:47:02.737Z,9.18
2023-01-17T18:49:33.294Z,7.75
2023-01-17T18:52:02.227Z,8.18
2023-01-17T18:54:31.935Z,9.00
2023-01-17T18:57:00.487Z,9.50
2023-01-17T18:59:28.788Z,9.40
2023-01-17T19:01:58.831Z,10.45
2023-01-17T19:04:28.334Z,9.10
2023-01-17T19:06:57.710Z,10.55
2023-01-17T19:09:26.552Z,7.75
2023-01-17T19:11:54.799Z,7.78
2023-01-17T19:14:30.004Z,8.57
2023-01-17T19:16:58.498Z,6.20
2023-01-17T19:19:26.929Z,8.48
2023-01-17T19:21:55.761Z,10.63
2023-01-17T19:24:26.667Z,10.13
2023-01-17T19:26:55.293Z,8.93
2023-01-17T19:29:23.926Z,9.45
2023-01-17T19:31:55.237Z,9.10
2023-01-17T19:34:23.763Z,10.75
2023-01-17T19:36:53.350Z,13.73
2023-01-17T19:39:25.498Z,10.10
2023-01-17T19:41:54.997Z,10.97
2023-01-17T19:44:32.847Z,9.13
2023-01-17T19:47:01.591Z,8.57
2023-01-17T19:49:32.214Z,8.63
2023-01-17T19:52:00.807Z,8.20
2023-01-17T19:54:29.305Z,7.63
2023-01-17T19:56:58.744Z,7.82
2023-01-17T19:59:29.176Z,7.07
2023-01-17T20:01:57.717Z,7.20
2023-01-17T20:04:27.578Z,7.15
2023-01-17T20:06:55.870Z,7.07
2023-01-17T20:09:25.962Z,7.10
2023-01-17T20:12:00.888Z,6.68
2023-01-17T20:14:31.993Z,7.00
2023-01-17T20:17:00.972Z,6.20
2023-01-17T20:19:31.496Z,7.40
2023-01-17T20:22:00.525Z,7.10
2023-01-17T20:24:37.735Z,6.78
2023-01-17T20:27:06.296Z,6.05
2023-01-17T20:29:35.863Z,10.73
2023-01-17T20:32:05.123Z,9.55
2023-01-17T20:34:33.485Z,8.30
2023-01-17T20:37:08.531Z,11.93
2023-01-17T20:39:41.948Z,10.73
2023-01-17T20:42:10.374Z,8.88
2023-01-17T20:44:39.930Z,9.10
2023-01-17T20:47:08.693Z,11.25
2023-01-17T20:49:37.072Z,8.63
2023-01-17T20:52:06.798Z,6.88
2023-01-17T20:54:35.863Z,6.57
2023-01-17T20:57:05.445Z,6.75
2023-01-17T20:59:40.267Z,7.28
2023-01-17T21:02:10.692Z,7.43
2023-01-17T21:04:39.504Z,8.32
2023-01-17T21:07:11.074Z,9.38
2023-01-17T21:09:39.307Z,11.18
2023-01-17T21:12:07.660Z,11.10
2023-01-17T21:14:37.996Z,11.75
2023-01-17T21:17:09.522Z,15.25
2023-01-17T21:19:39.106Z,11.80
2023-01-17T21:22:07.799Z,10.50
2023-01-17T21:24:36.075Z,7.53
2023-01-17T21:27:04.524Z,6.57
2023-01-17T21:29:33.517Z,7.55
2023-01-17T21:32:05.081Z,5.45
2023-01-17T21:34:36.248Z,5.15
2023-01-17T21:37:04.821Z,4.28
2023-01-17T21:39:34.562Z,3.65
2023-01-17T21:42:04.249Z,2.90
2023-01-17T21:44:36.200Z,3.00
2023-01-17T21:47:07.239Z,3.17
2023-01-17T21:49:41.566Z,4.10
2023-01-17T21:52:23.575Z,4.53
2023-01-17T21:55:09.311Z,5.18
2023-01-17T21:57:56.563Z,4.88
2023-01-17T22:00:25.115Z,4.05
2023-01-17T22:02:54.357Z,5.35
2023-01-17T22:05:33.913Z,4.88
2023-01-17T22:08:15.986Z,4.88
2023-01-17T22:10:47.495Z,4.78
2023-01-17T22:13:26.514Z,4.32
2023-01-17T22:15:59.993Z,3.88
2023-01-17T22:18:32.016Z,4.10
2023-01-17T22:21:09.216Z,4.05
2023-01-17T22:23:38.942Z,4.60
2023-01-17T22:26:09.451Z,3.88
2023-01-17T22:28:38.261Z,4.30
2023-01-17T22:31:12.900Z,4.25
2023-01-17T22:33:44.571Z,4.47
2023-01-17T22:36:17.774Z,4.97
2023-01-17T22:38:46.762Z,3.88
2023-01-17T22:41:16.326Z,3.90
2023-01-17T22:43:46.626Z,3.72
2023-01-17T22:46:18.843Z,5.63
2023-01-17T22:48:49.504Z,6.40
2023-01-17T22:51:21.928Z,7.10
2023-01-17T22:53:53.163Z,6.40
2023-01-17T22:56:25.974Z,4.88
2023-01-17T22:58:54.358Z,4.32
2023-01-17T23:01:26.546Z,4.07
2023-01-17T23:03:56.188Z,4.35
2023-01-17T23:06:31.700Z,4.15
2023-01-17T23:09:04.855Z,4.38
2023-01-17T23:11:46.275Z,4.28
2023-01-17T23:14:20.748Z,4.22
2023-01-17T23:17:08.276Z,6.22
2023-01-17T23:19:38.474Z,6.95
2023-01-17T23:22:20.558Z,8.20
2023-01-17T23:24:54.186Z,8.07
2023-01-17T23:27:43.296Z,8.30
2023-01-17T23:30:13.761Z,7.60
2023-01-17T23:32:46.428Z,8.75
2023-01-17T23:35:16.928Z,7.65
2023-01-17T23:38:04.069Z,8.02
2023-01-17T23:40:35.633Z,8.32
2023-01-17T23:43:22.147Z,8.90
2023-01-17T23:45:51.529Z,7.53
2023-01-17T23:48:21.264Z,7.82
2023-01-17T23:50:50.105Z,8.13
2023-01-17T23:53:27.247Z,7.68
2023-01-17T23:55:57.530Z,8.13
2023-01-17T23:58:27.640Z,7.60
